createdAt,value
2024-01-16T00:00:24.753Z,97523.69
2024-01-16T00:03:26.272Z,97518.97
2024-01-16T00:06:27.849Z,97514.63
2024-01-16T00:09:29.318Z,97527.66
2024-01-16T00:12:30.745Z,97526.63
2024-01-16T00:15:32.207Z,97534.56
2024-01-16T00:18:33.899Z,97519.88
2024-01-16T00:21:40.471Z,97526.38
2024-01-16T00:24:41.878Z,97521.31
2024-01-16T00:27:43.793Z,97530.13
2024-01-16T00:30:45.313Z,97528.56
2024-01-16T00:33:46.795Z,97535.22
2024-01-16T00:36:48.245Z,97537.94
2024-01-16T00:39:49.643Z,97528.78
2024-01-16T00:42:51.149Z,97536.75
2024-01-16T00:45:52.757Z,97529.25
2024-01-16T00:48:54.314Z,97530.22
2024-01-16T00:51:55.798Z,97527.81
2024-01-16T00:54:57.174Z,97538.59
2024-01-16T00:57:58.586Z,97547.84
2024-01-16T01:01:00.035Z,97543.41
2024-01-16T01:04:01.553Z,97553.84
2024-01-16T01:07:03.130Z,97555.66
2024-01-16T01:10:04.758Z,97554.28
2024-01-16T01:13:06.158Z,97567.16
2024-01-16T01:16:07.551Z,97558.63
2024-01-16T01:19:09.044Z,97558.53
2024-01-16T01:22:10.461Z,97564.03
2024-01-16T01:25:12.717Z,97580.31
2024-01-16T01:28:14.105Z,97583.91
2024-01-16T01:31:15.514Z,97577.09
2024-01-16T01:34:17.363Z,97583.41
2024-01-16T01:37:18.872Z,97585.56
2024-01-16T01:40:20.268Z,97601.41
2024-01-16T01:43:24.315Z,97600.13
2024-01-16T01:46:26.314Z,97605.28
2024-01-16T01:49:28.610Z,97599.06
2024-01-16T01:52:32.932Z,97609.56
2024-01-16T01:55:34.655Z,97617.41
2024-01-16T01:58:39.175Z,97623.63
2024-01-16T02:01:41.414Z,97620.72
2024-01-16T02:04:45.027Z,97622.44
2024-01-16T02:07:47.196Z,97621.47
2024-01-16T02:10:50.954Z,97629.50
2024-01-16T02:13:52.791Z,97627.59
2024-01-16T02:16:54.206Z,97624.50
2024-01-16T02:19:55.645Z,97626.06
2024-01-16T02:22:59.774Z,97635.19
2024-01-16T02:26:01.920Z,97635.59
2024-01-16T02:29:05.573Z,97643.78
2024-01-16T02:32:06.973Z,97641.47
2024-01-16T02:35:08.552Z,97643.19
2024-01-16T02:38:10.101Z,97648.13
2024-01-16T02:41:14.602Z,97657.19
2024-01-16T02:44:16.009Z,97658.66
2024-01-16T02:47:17.632Z,97660.13
2024-01-16T02:50:19.092Z,97661.88
2024-01-16T02:53:20.550Z,97657.91
2024-01-16T02:56:21.977Z,97664.13
2024-01-16T02:59:23.609Z,97668.34
2024-01-16T03:02:25.056Z,97657.38
2024-01-16T03:05:26.478Z,97669.88
2024-01-16T03:08:28.015Z,97665.53
2024-01-16T03:11:31.360Z,97675.50
2024-01-16T03:14:35.425Z,97674.66
2024-01-16T03:17:36.984Z,97675.16
2024-01-16T03:20:38.514Z,97684.22
2024-01-16T03:23:39.986Z,97680.53
2024-01-16T03:26:41.772Z,97687.59
2024-01-16T03:29:43.322Z,97687.78
2024-01-16T03:32:44.959Z,97685.16
2024-01-16T03:35:46.561Z,97682.50
2024-01-16T03:38:48.129Z,97682.81
2024-01-16T03:41:49.633Z,97685.94
2024-01-16T03:44:51.099Z,97677.66
2024-01-16T03:47:52.598Z,97687.97
2024-01-16T03:50:55.620Z,97684.91
2024-01-16T03:53:57.167Z,97684.59
2024-01-16T03:56:58.597Z,97685.13
2024-01-16T04:00:00.048Z,97691.94
2024-01-16T04:03:01.447Z,97693.53
2024-01-16T04:06:03.043Z,97687.72
2024-01-16T04:09:05.776Z,97687.50
2024-01-16T04:12:09.202Z,97691.53
2024-01-16T04:15:10.737Z,97685.16
2024-01-16T04:18:12.243Z,97688.53
2024-01-16T04:21:13.948Z,97687.94
2024-01-16T04:24:16.011Z,97680.47
2024-01-16T04:27:17.432Z,97678.97
2024-01-16T04:30:21.298Z,97679.59
2024-01-16T04:33:22.863Z,97682.31
2024-01-16T04:36:24.733Z,97689.16
2024-01-16T04:39:26.107Z,97674.94
2024-01-16T04:42:27.511Z,97673.44
2024-01-16T04:45:29.011Z,97675.09
2024-01-16T04:48:30.480Z,97673.31
2024-01-16T04:51:31.936Z,97679.03
2024-01-16T04:54:33.600Z,97676.53
2024-01-16T04:57:35.005Z,97678.59
2024-01-16T05:00:36.455Z,97675.94
2024-01-16T05:03:38.010Z,97667.66
2024-01-16T05:06:40.381Z,97664.56
2024-01-16T05:09:42.080Z,97673.44
2024-01-16T05:12:43.521Z,97672.66
2024-01-16T05:15:45.006Z,97677.91
2024-01-16T05:18:46.467Z,97673.81
2024-01-16T05:21:47.935Z,97670.44
2024-01-16T05:24:49.315Z,97670.94
2024-01-16T05:27:50.724Z,97663.56
2024-01-16T05:30:52.273Z,97658.34
2024-01-16T05:33:54.291Z,97661.59
2024-01-16T05:36:55.954Z,97658.16
2024-01-16T05:39:57.443Z,97661.97
2024-01-16T05:42:58.879Z,97666.41
2024-01-16T05:46:00.282Z,97661.31
2024-01-16T05:49:02.217Z,97664.69
2024-01-16T05:52:03.820Z,97665.50
2024-01-16T05:55:06.077Z,97667.56
2024-01-16T05:58:07.484Z,97663.19
2024-01-16T06:01:08.940Z,97674.25
2024-01-16T06:04:11.947Z,97679.47
2024-01-16T06:07:14.973Z,97671.53
2024-01-16T06:10:16.640Z,97681.91
2024-01-16T06:13:21.203Z,97680.00
2024-01-16T06:16:22.611Z,97687.13
2024-01-16T06:19:24.054Z,97701.25
2024-01-16T06:22:25.496Z,97696.16
2024-01-16T06:25:26.918Z,97694.47
2024-01-16T06:28:28.372Z,97699.75
2024-01-16T06:31:29.872Z,97701.75
2024-01-16T06:34:31.802Z,97696.69
2024-01-16T06:37:33.281Z,97701.91
2024-01-16T06:40:34.658Z,97706.25
2024-01-16T06:43:36.200Z,97706.06
2024-01-16T06:46:37.611Z,97707.91
2024-01-16T06:49:39.166Z,97705.69
2024-01-16T06:52:40.593Z,97698.19
2024-01-16T06:55:42.036Z,97703.97
2024-01-16T06:58:43.432Z,97706.56
2024-01-16T07:01:45.460Z,97702.69
2024-01-16T07:04:46.992Z,97708.84
2024-01-16T07:07:48.560Z,97706.44
2024-01-16T07:10:49.967Z,97695.47
2024-01-16T07:13:51.404Z,97692.94
2024-01-16T07:16:52.848Z,97693.09
2024-01-16T07:19:54.315Z,97705.72
2024-01-16T07:22:55.762Z,97700.03
2024-01-16T07:25:57.178Z,97710.53
2024-01-16T07:28:58.595Z,97721.97
2024-01-16T07:32:00.251Z,97723.25
2024-01-16T07:35:04.132Z,97733.94
2024-01-16T07:38:05.972Z,97739.66
2024-01-16T07:41:07.441Z,97735.22
2024-01-16T07:44:08.971Z,97732.16
2024-01-16T07:47:10.513Z,97736.22
2024-01-16T07:50:12.038Z,97738.25
2024-01-16T07:53:13.514Z,97738.59
2024-01-16T07:56:15.036Z,97741.50
2024-01-16T07:59:16.458Z,97748.13
2024-01-16T08:02:18.381Z,97752.28
2024-01-16T08:05:22.868Z,97749.63
2024-01-16T08:08:24.504Z,97751.03
2024-01-16T08:11:26.034Z,97748.56
2024-01-16T08:14:27.549Z,97748.19
2024-01-16T08:17:29.081Z,97749.38
2024-01-16T08:20:30.581Z,97745.03
2024-01-16T08:23:32.099Z,97752.19
2024-01-16T08:26:33.598Z,97745.97
2024-01-16T08:29:35.458Z,97748.69
2024-01-16T08:32:36.953Z,97753.78
2024-01-16T08:35:38.577Z,97748.09
2024-01-16T08:38:40.123Z,97753.25
2024-01-16T08:41:41.676Z,97757.91
2024-01-16T08:44:43.246Z,97756.31
2024-01-16T08:47:44.914Z,97754.78
2024-01-16T08:50:46.845Z,97754.56
2024-01-16T08:53:48.368Z,97756.50
2024-01-16T08:56:50.296Z,97756.44
2024-01-16T08:59:51.807Z,97756.50
2024-01-16T09:02:53.464Z,97748.91
2024-01-16T09:05:55.109Z,97745.66
2024-01-16T09:08:57.094Z,97740.34
2024-01-16T09:11:59.069Z,97750.22
2024-01-16T09:15:00.660Z,97758.34
2024-01-16T09:18:02.838Z,97759.94
2024-01-16T09:21:04.649Z,97768.19
2024-01-16T09:24:06.249Z,97759.16
2024-01-16T09:27:07.950Z,97768.03
2024-01-16T09:30:09.877Z,97768.69
2024-01-16T09:33:12.199Z,97771.09
2024-01-16T09:36:13.727Z,97778.78
2024-01-16T09:39:18.098Z,97777.94
2024-01-16T09:42:21.190Z,97773.69
2024-01-16T09:45:23.027Z,97779.63
2024-01-16T09:48:25.528Z,97780.31
2024-01-16T09:51:27.217Z,97781.00
2024-01-16T09:54:28.669Z,97778.09
2024-01-16T09:57:31.007Z,97783.13
2024-01-16T10:00:33.362Z,97788.81
2024-01-16T10:03:36.124Z,97784.00
2024-01-16T10:06:40.371Z,97776.41
2024-01-16T10:09:42.050Z,97781.00
2024-01-16T10:12:44.650Z,97783.81
2024-01-16T10:15:50.832Z,97774.34
2024-01-16T10:19:05.456Z,97775.66
2024-01-16T10:22:10.021Z,97771.63
2024-01-16T10:25:13.546Z,97773.44
2024-01-16T10:28:25.378Z,97768.69
2024-01-16T10:31:31.221Z,97767.66
2024-01-16T10:34:32.894Z,97761.47
2024-01-16T10:37:50.056Z,97756.47
2024-01-16T10:41:06.998Z,97749.16
2024-01-16T10:44:09.037Z,97764.63
2024-01-16T10:47:13.019Z,97765.97
2024-01-16T10:50:14.735Z,97765.25
2024-01-16T10:53:20.029Z,97758.47
2024-01-16T10:56:21.692Z,97760.09
2024-01-16T10:59:27.074Z,97765.25
2024-01-16T11:02:39.568Z,97756.06
2024-01-16T11:05:42.272Z,97756.88
2024-01-16T11:08:47.066Z,97755.13
2024-01-16T11:11:51.250Z,97758.06
2024-01-16T11:14:53.301Z,97754.84
2024-01-16T11:17:56.542Z,97757.97
2024-01-16T11:21:06.119Z,97754.13
2024-01-16T11:24:10.428Z,97750.28
2024-01-16T11:27:23.318Z,97743.22
2024-01-16T11:30:35.249Z,97741.31
2024-01-16T11:33:36.690Z,97740.47
2024-01-16T11:36:56.371Z,97735.88
2024-01-16T11:40:21.783Z,97736.44
2024-01-16T11:43:35.782Z,97736.66
2024-01-16T11:47:01.479Z,97734.06
2024-01-16T11:50:13.434Z,97732.94
2024-01-16T11:53:37.703Z,97728.72
2024-01-16T11:56:45.593Z,97722.16
2024-01-16T11:59:48.049Z,97725.78
2024-01-16T12:03:02.742Z,97716.84
2024-01-16T12:06:07.553Z,97718.31
2024-01-16T12:09:13.305Z,97709.16
2024-01-16T12:12:16.764Z,97709.25
2024-01-16T12:15:20.072Z,97706.44
2024-01-16T12:18:30.915Z,97699.31
2024-01-16T12:21:41.892Z,97689.50
2024-01-16T12:24:43.714Z,97683.13
2024-01-16T12:27:45.159Z,97664.22
2024-01-16T12:30:50.988Z,97665.25
2024-01-16T12:33:58.375Z,97655.41
2024-01-16T12:37:07.955Z,97655.97
2024-01-16T12:40:09.887Z,97647.59
2024-01-16T12:43:11.467Z,97648.22
2024-01-16T12:46:13.089Z,97648.75
2024-01-16T12:49:14.650Z,97642.50
2024-01-16T12:52:21.808Z,97647.38
2024-01-16T12:55:24.566Z,97644.06
2024-01-16T12:58:28.998Z,97637.13
2024-01-16T13:01:38.896Z,97636.50
2024-01-16T13:04:41.920Z,97639.09
2024-01-16T13:07:43.336Z,97630.47
2024-01-16T13:10:44.728Z,97632.50
2024-01-16T13:13:48.957Z,97632.03
2024-01-16T13:16:56.544Z,97632.34
2024-01-16T13:19:58.005Z,97627.16
2024-01-16T13:22:59.520Z,97623.78
2024-01-16T13:26:01.370Z,97618.69
2024-01-16T13:29:02.842Z,97614.44
2024-01-16T13:32:05.535Z,97628.63
2024-01-16T13:35:10.628Z,97624.38
2024-01-16T13:38:12.680Z,97623.00
2024-01-16T13:41:14.248Z,97616.50
2024-01-16T13:44:15.754Z,97611.97
2024-01-16T13:47:22.966Z,97600.81
2024-01-16T13:50:25.126Z,97602.91
2024-01-16T13:53:26.676Z,97594.22
2024-01-16T13:56:46.042Z,97584.56
2024-01-16T13:59:49.556Z,97582.38
2024-01-16T14:02:51.964Z,97590.78
2024-01-16T14:05:56.419Z,97588.78
2024-01-16T14:08:57.844Z,97585.34
2024-01-16T14:11:59.310Z,97583.22
2024-01-16T14:15:01.803Z,97588.41
2024-01-16T14:18:10.582Z,97580.47
2024-01-16T14:21:12.070Z,97583.06
2024-01-16T14:24:13.663Z,97586.94
2024-01-16T14:27:16.675Z,97577.41
2024-01-16T14:30:19.754Z,97572.16
2024-01-16T14:33:21.339Z,97569.66
2024-01-16T14:36:22.801Z,97573.84
2024-01-16T14:39:26.989Z,97575.38
2024-01-16T14:42:29.238Z,97566.00
2024-01-16T14:45:32.585Z,97570.63
2024-01-16T14:48:34.110Z,97573.41
2024-01-16T14:51:36.466Z,97569.38
2024-01-16T14:54:37.925Z,97567.94
2024-01-16T14:57:47.689Z,97569.03
2024-01-16T15:00:49.775Z,97571.25
2024-01-16T15:03:51.310Z,97564.19
2024-01-16T15:06:53.895Z,97569.88
2024-01-16T15:09:56.270Z,97558.75
2024-01-16T15:12:57.768Z,97567.66
2024-01-16T15:15:59.200Z,97564.94
2024-01-16T15:19:00.872Z,97566.06
2024-01-16T15:22:02.465Z,97567.97
2024-01-16T15:25:06.153Z,97572.91
2024-01-16T15:28:07.668Z,97573.44
2024-01-16T15:31:09.929Z,97576.72
2024-01-16T15:34:14.785Z,97576.28
2024-01-16T15:37:18.290Z,97573.13
2024-01-16T15:40:20.369Z,97565.78
2024-01-16T15:43:21.958Z,97574.13
2024-01-16T15:46:24.888Z,97576.50
2024-01-16T15:49:27.393Z,97569.81
2024-01-16T15:52:29.285Z,97568.19
2024-01-16T15:55:30.712Z,97578.69
2024-01-16T15:58:33.524Z,97580.84
2024-01-16T16:01:35.004Z,97578.47
2024-01-16T16:04:38.075Z,97582.50
2024-01-16T16:07:39.614Z,97579.78
2024-01-16T16:10:42.466Z,97582.69
2024-01-16T16:13:44.073Z,97583.34
2024-01-16T16:16:48.336Z,97585.06
2024-01-16T16:19:50.546Z,97591.00
2024-01-16T16:22:52.191Z,97598.13
2024-01-16T16:25:53.664Z,97581.75
2024-01-16T16:28:55.076Z,97585.94
2024-01-16T16:31:57.885Z,97573.94
2024-01-16T16:34:59.337Z,97578.97
2024-01-16T16:38:01.277Z,97564.97
2024-01-16T16:41:03.137Z,97573.38
2024-01-16T16:44:04.703Z,97570.22
2024-01-16T16:47:06.106Z,97565.97
2024-01-16T16:50:07.764Z,97567.00
2024-01-16T16:53:10.024Z,97570.38
2024-01-16T16:56:13.272Z,97570.44
2024-01-16T16:59:14.814Z,97567.28
2024-01-16T17:02:16.313Z,97569.50
2024-01-16T17:05:20.310Z,97582.41
2024-01-16T17:08:22.049Z,97592.84
2024-01-16T17:11:24.889Z,97595.22
2024-01-16T17:14:26.373Z,97584.13
2024-01-16T17:17:30.135Z,97596.19
2024-01-16T17:20:32.841Z,97600.00
2024-01-16T17:23:35.210Z,97600.34
2024-01-16T17:26:36.975Z,97601.38
2024-01-16T17:29:39.753Z,97599.91
2024-01-16T17:32:41.448Z,97603.56
2024-01-16T17:35:43.061Z,97603.75
2024-01-16T17:38:45.509Z,97607.13
2024-01-16T17:41:47.303Z,97602.09
2024-01-16T17:44:50.162Z,97609.13
2024-01-16T17:47:52.087Z,97608.03
2024-01-16T17:50:53.786Z,97609.84
2024-01-16T17:53:55.512Z,97624.25
2024-01-16T17:56:57.800Z,97627.75
2024-01-16T17:59:59.361Z,97623.22
2024-01-16T18:03:01.177Z,97620.28
2024-01-16T18:06:06.350Z,97610.91
2024-01-16T18:09:11.135Z,97615.13
2024-01-16T18:12:12.778Z,97610.91
2024-01-16T18:15:14.502Z,97605.91
2024-01-16T18:18:17.232Z,97604.59
2024-01-16T18:21:18.979Z,97609.69
2024-01-16T18:24:22.292Z,97610.13
2024-01-16T18:27:23.735Z,97594.84
2024-01-16T18:30:27.598Z,97589.88
2024-01-16T18:33:29.299Z,97586.94
2024-01-16T18:36:30.875Z,97575.41
2024-01-16T18:39:32.910Z,97578.00
2024-01-16T18:42:34.319Z,97568.78
2024-01-16T18:45:35.819Z,97566.22
2024-01-16T18:48:37.396Z,97557.22
2024-01-16T18:51:38.971Z,97560.13
2024-01-16T18:54:41.185Z,97562.44
2024-01-16T18:57:43.533Z,97555.16
2024-01-16T19:00:45.623Z,97546.81
2024-01-16T19:03:49.407Z,97544.34
2024-01-16T19:06:52.900Z,97536.94
2024-01-16T19:09:54.379Z,97541.59
2024-01-16T19:12:56.514Z,97537.56
2024-01-16T19:15:57.940Z,97536.91
2024-01-16T19:19:00.114Z,97523.53
2024-01-16T19:22:01.793Z,97526.84
2024-01-16T19:25:03.518Z,97520.47
2024-01-16T19:28:05.085Z,97528.53
2024-01-16T19:31:06.762Z,97521.63
2024-01-16T19:34:10.878Z,97518.47
2024-01-16T19:37:12.382Z,97516.97
2024-01-16T19:40:17.899Z,97508.13
2024-01-16T19:43:20.590Z,97516.47
2024-01-16T19:46:21.989Z,97506.53
2024-01-16T19:49:23.422Z,97504.91
2024-01-16T19:52:24.834Z,97507.41
2024-01-16T19:55:26.234Z,97515.91
2024-01-16T19:58:27.671Z,97515.13
2024-01-16T20:01:31.572Z,97510.50
2024-01-16T20:04:34.015Z,97514.38
2024-01-16T20:07:35.647Z,97506.41
2024-01-16T20:10:39.897Z,97506.28
2024-01-16T20:13:41.642Z,97500.44
2024-01-16T20:16:43.215Z,97491.28
2024-01-16T20:19:44.774Z,97493.72
2024-01-16T20:22:46.293Z,97488.09
2024-01-16T20:25:47.769Z,97491.53
2024-01-16T20:28:52.090Z,97490.09
2024-01-16T20:31:53.633Z,97469.97
2024-01-16T20:34:55.557Z,97468.00
2024-01-16T20:37:57.075Z,97470.19
2024-01-16T20:40:58.479Z,97463.94
2024-01-16T20:43:59.957Z,97459.94
2024-01-16T20:47:02.019Z,97458.16
2024-01-16T20:50:06.319Z,97458.94
2024-01-16T20:53:07.763Z,97459.66
2024-01-16T20:56:09.379Z,97457.78
2024-01-16T20:59:12.475Z,97459.50
2024-01-16T21:02:13.906Z,97456.56
2024-01-16T21:05:15.518Z,97459.94
2024-01-16T21:08:17.114Z,97444.63
2024-01-16T21:11:18.537Z,97444.72
2024-01-16T21:14:20.756Z,97442.50
2024-01-16T21:17:23.911Z,97429.88
2024-01-16T21:20:26.171Z,97428.19
2024-01-16T21:23:27.653Z,97428.00
2024-01-16T21:26:29.339Z,97428.00
2024-01-16T21:29:30.840Z,97426.25
2024-01-16T21:32:32.562Z,97429.78
2024-01-16T21:35:34.887Z,97420.13
2024-01-16T21:38:36.822Z,97414.66
2024-01-16T21:41:38.304Z,97412.44
2024-01-16T21:44:40.075Z,97409.91
2024-01-16T21:47:41.546Z,97407.38
2024-01-16T21:50:43.871Z,97405.34
2024-01-16T21:53:45.737Z,97408.94
2024-01-16T21:56:47.166Z,97408.56
2024-01-16T21:59:48.687Z,97412.84
2024-01-16T22:02:57.514Z,97403.31
2024-01-16T22:05:59.201Z,97397.22
2024-01-16T22:09:00.741Z,97394.69
2024-01-16T22:12:02.316Z,97383.03
2024-01-16T22:15:04.236Z,97382.34
2024-01-16T22:18:05.855Z,97384.09
2024-01-16T22:21:08.175Z,97385.91
2024-01-16T22:24:09.693Z,97376.50
2024-01-16T22:27:11.150Z,97367.88
2024-01-16T22:30:13.444Z,97368.06
2024-01-16T22:33:15.066Z,97356.28
2024-01-16T22:36:16.721Z,97350.41
2024-01-16T22:39:18.787Z,97352.19
2024-01-16T22:42:21.609Z,97339.78
2024-01-16T22:45:24.167Z,97335.06
2024-01-16T22:48:25.866Z,97330.06
2024-01-16T22:51:27.336Z,97324.41
2024-01-16T22:54:28.706Z,97325.06
2024-01-16T22:57:30.131Z,97322.38
2024-01-16T23:00:31.813Z,97322.53
2024-01-16T23:03:33.299Z,97322.53
2024-01-16T23:06:34.728Z,97303.28
2024-01-16T23:09:36.246Z,97300.88
2024-01-16T23:12:37.656Z,97294.03
2024-01-16T23:15:39.310Z,97289.06
2024-01-16T23:18:41.295Z,97285.78
2024-01-16T23:21:42.796Z,97280.94
2024-01-16T23:24:44.202Z,97281.91
2024-01-16T23:27:45.680Z,97274.97
2024-01-16T23:30:47.136Z,97272.66
2024-01-16T23:33:48.688Z,97274.53
2024-01-16T23:36:50.489Z,97261.41
2024-01-16T23:39:55.145Z,97246.22
2024-01-16T23:42:58.260Z,97247.22
2024-01-16T23:46:01.732Z,97241.38
2024-01-16T23:49:03.303Z,97226.13
2024-01-16T23:52:06.775Z,97236.06
2024-01-16T23:55:10.247Z,97225.16
2024-01-16T23:58:11.987Z,97223.31
